Terminal Aerodrome Forecast
Issued by NWS

Home | Current Version | Previous Version | Text Only | Print | Product List | Glossary On
Versions: 1 2 3 4 5 6 7 8 9 10 11 12
000
FTUS46 KMFR 030544
TAFLMT
TAF
KLMT 030544Z 0306/0406 33011KT P6SM FEW040 OVC070
     FM030700 34006KT P6SM SCT040 BKN060
     FM031100 30003KT P6SM SCT040 SCT060
     FM031900 29005KT P6SM FEW060
     FM032200 31010G18KT P6SM FEW060 FEW250
     FM040400 32009KT P6SM FEW250=

USA.gov is the U.S. government's official web portal to all federal, state and local government web resources and services.